Scroll down
FLIGHT INFORMATION
United Airlines

UAL723

At Arrival Gate

NCRG
 NSTU
DATE: 2020-07-23
GATE:  -
GATE DEPARTURE: 22:52
TAKEOFF: 22:57
DATE: 2020-07-24
GATE:  -
LANDING: 00:43
GATE ARRIVAL: 00:46
FLIGHT DATA
Crew: 
Speed: 
521 kts
Altitude: 
38,024 ft
Stage Length: 
747.6 nm
Block Time: 
1.9 hrs
Flight Time: 
1.8 hrs
Fuel Used: 
40,130 lb
Cleared Route: NCRG RG GOPSA INVAS GUMRA TUT NSTU
TRACK DATA
50,000 ft 1,000 kts
AIRCRAFT INFO AND CUMULATIVE STATS
Aircraft Type: 
B744
Registration: 
SELCAL: 
ASEQ
MSN/LN: 
26902 / 1141
Operator: 
Total Flights: 
5
Total Block Time: 
25.8 hrs
Total Flight Time: 
24.9 hrs
Total Fuel Used: 
389,814 lb
DATALINK LOG | Newest first | Current as of: 2023-02-07 22:26:46
LABEL SEQUENCE CONTENT Dn/Up
QD293200:46 41.5▼ Dn
QC262900:43▼ Dn
2U1438NSTU 232250Z 13013KT 12SM SCT018 30/25 A2996 RMK SLP147 T02950250▲ Up
2S5600NSTU▼ Dn
DM483129GOPSA 23:10z FL292 INVAS 23:44z GUMRA M0.86 68.7 -32 238/32 NSTU 00:35z▼ Dn
GA2927ADVANCED GATE ASSIGNMENTS NOT YET AVAILABLE AT THIS AIRPORT▲ Up
GR2927NSTU 00:35 HI-VAL NO DIPL/VIP NO▼ Dn
5R2826GOPSA 23:10z FL292 INVAS 23:44z GUMRA M0.86 68.7 -32 238/32 NSTU 00:35z▼ Dn
2U2610NSTU 232250Z 13013KT 12SM SCT018 30/25 A2996 RMK SLP147 T02950250▲ Up
2S2725NSTU▼ Dn
QB585922:57▼ Dn
QA535422:52 81.6▼ Dn
2U1726NCRG 232200Z AUTO 01003KT 320V060 9999 -RA FEW008/// SCT014/// BKN019/// 24/23 Q1019▲ Up
2S1819NCRG▼ Dn
A31525CLEARED TO NSTU VIA RG B454 TUT. SQUAWK .▲ Up
B31516NCRG NSTU UAL723 N104UA ▼ Dn
Q01213[LINK ACK]▲ Up
Q01213[LINK TEST]▼ Dn


AIRCRAFT HISTORY
FLIGHT DATE FLIGHT NO. ORIGIN DESTINATION CLEARED ROUTE BLOCK TIME FLIGHT TIME FUEL USED PILOT
2022-06-25UAL6637NTAA KDEN NTAA BENKO TIERE TARAO TUNBA TIAMU 06N17 10N12 16N10 SJD DASON KIPUM ALRIN KAVRA LERIV DUTES BECON RUTER TCS ABQ FRIHO FLYBY ESPAN ALS KDEN9.7 hrs9.5 hrs224,166 lbMike Dryden
2020-09-01UAL901NSTU NTAA NSTU GUTEL KINAG MASBU OPERU IDUTA NTAA4.2 hrs4 hrs85,326 lbKevin Hall
2020-07-23UAL723NCRG NSTU NCRG RG GOPSA INVAS GUMRA TUT NSTU1.9 hrs1.8 hrs40,130 lbEphedrin
2020-07-23UAL723NTAA NCRG NTAA MAITO KRILL ANGAI RG407 NCRG1.7 hrs1.6 hrs40,192 lbEphedrin
2019-10-03KVCV NTAA 8.3 hrs8.1 hrs0 lbDouglas Morlan